Burrville, Utah
Current Conditions -  °F | °C
As of 5:15 PM on Wednesday 28 Jan 2015 (Local Time) from KDTA Reporting Station
Overcast Overcast  
Wind Chill: 47°   Ceiling: 7000
Heat Index: 50°   Visibility: 10mi
Dew Point: 33°   Wind: 7mph
Humidity: 53%   Direction: 350°N
Pressure: 30.27"   Gusts: NA
Location:  38.7083°N, 111.729°W
Report Text: KDTA 290015Z AUTO 35006KT 10SM OVC070 10/01 A3027 RMK AO1 T00980006
Loading
Personal Weather Stations






























Interactive Weather Map New forecast layout! Learn more

10-Day Weather Forecast

Advertisements
Track Severe Weather on mobile